sensor_id;sensor_type;location;lat;lon;timestamp;P1;durP1;ratioP1;P2;durP2;ratioP2
30723;SDS011;17473;52.286;20.930;2022-11-20T00:01:30;49.20;;;24.00;;
30723;SDS011;17473;52.286;20.930;2022-11-20T00:03:58;49.60;;;24.07;;
30723;SDS011;17473;52.286;20.930;2022-11-20T00:06:27;50.27;;;24.37;;
30723;SDS011;17473;52.286;20.930;2022-11-20T00:08:55;55.13;;;25.30;;
30723;SDS011;17473;52.286;20.930;2022-11-20T00:11:27;49.10;;;24.83;;
30723;SDS011;17473;52.286;20.930;2022-11-20T00:13:56;53.77;;;25.77;;
30723;SDS011;17473;52.286;20.930;2022-11-20T00:16:26;49.60;;;25.03;;
30723;SDS011;17473;52.286;20.930;2022-11-20T00:18:56;48.53;;;23.07;;
30723;SDS011;17473;52.286;20.930;2022-11-20T00:21:23;50.20;;;25.67;;
30723;SDS011;17473;52.286;20.930;2022-11-20T00:23:54;53.10;;;24.77;;
30723;SDS011;17473;52.286;20.930;2022-11-20T00:26:23;47.73;;;23.83;;
30723;SDS011;17473;52.286;20.930;2022-11-20T00:28:53;56.87;;;25.13;;
30723;SDS011;17473;52.286;20.930;2022-11-20T00:31:23;50.70;;;23.77;;
30723;SDS011;17473;52.286;20.930;2022-11-20T00:33:51;48.13;;;24.23;;
30723;SDS011;17473;52.286;20.930;2022-11-20T00:36:20;44.63;;;23.13;;
30723;SDS011;17473;52.286;20.930;2022-11-20T00:38:51;48.67;;;25.50;;
30723;SDS011;17473;52.286;20.930;2022-11-20T00:41:22;53.13;;;24.90;;
30723;SDS011;17473;52.286;20.930;2022-11-20T00:43:53;51.77;;;24.13;;
30723;SDS011;17473;52.286;20.930;2022-11-20T00:46:22;51.50;;;23.90;;
30723;SDS011;17473;52.286;20.930;2022-11-20T00:48:51;49.27;;;23.70;;
30723;SDS011;17473;52.286;20.930;2022-11-20T00:51:20;46.60;;;23.30;;
30723;SDS011;17473;52.286;20.930;2022-11-20T00:53:49;49.93;;;24.13;;
30723;SDS011;17473;52.286;20.930;2022-11-20T00:56:18;51.90;;;25.07;;
30723;SDS011;17473;52.286;20.930;2022-11-20T00:58:46;50.77;;;24.80;;
30723;SDS011;17473;52.286;20.930;2022-11-20T01:01:16;50.87;;;23.77;;
30723;SDS011;17473;52.286;20.930;2022-11-20T01:03:48;49.03;;;25.20;;
30723;SDS011;17473;52.286;20.930;2022-11-20T01:08:50;51.40;;;24.47;;
30723;SDS011;17473;52.286;20.930;2022-11-20T01:11:20;54.20;;;25.47;;
30723;SDS011;17473;52.286;20.930;2022-11-20T01:13:53;43.40;;;21.70;;
30723;SDS011;17473;52.286;20.930;2022-11-20T01:16:32;45.53;;;23.83;;
30723;SDS011;17473;52.286;20.930;2022-11-20T01:19:03;45.97;;;23.33;;
30723;SDS011;17473;52.286;20.930;2022-11-20T01:21:37;52.10;;;24.77;;
30723;SDS011;17473;52.286;20.930;2022-11-20T01:24:08;50.00;;;23.67;;
30723;SDS011;17473;52.286;20.930;2022-11-20T01:26:40;46.77;;;23.77;;
30723;SDS011;17473;52.286;20.930;2022-11-20T01:29:19;47.03;;;22.67;;
30723;SDS011;17473;52.286;20.930;2022-11-20T01:31:49;48.60;;;22.83;;
30723;SDS011;17473;52.286;20.930;2022-11-20T01:34:18;43.13;;;22.10;;
30723;SDS011;17473;52.286;20.930;2022-11-20T01:36:46;43.50;;;21.90;;
30723;SDS011;17473;52.286;20.930;2022-11-20T01:39:16;47.20;;;24.07;;
30723;SDS011;17473;52.286;20.930;2022-11-20T01:41:47;43.73;;;22.00;;
30723;SDS011;17473;52.286;20.930;2022-11-20T01:44:52;42.97;;;22.70;;
30723;SDS011;17473;52.286;20.930;2022-11-20T01:47:34;46.57;;;22.17;;
30723;SDS011;17473;52.286;20.930;2022-11-20T01:50:13;49.13;;;22.90;;
30723;SDS011;17473;52.286;20.930;2022-11-20T01:52:49;41.97;;;22.83;;
30723;SDS011;17473;52.286;20.930;2022-11-20T01:55:36;53.77;;;23.50;;
30723;SDS011;17473;52.286;20.930;2022-11-20T01:58:11;47.67;;;22.90;;
30723;SDS011;17473;52.286;20.930;2022-11-20T02:00:40;50.90;;;23.27;;
30723;SDS011;17473;52.286;20.930;2022-11-20T02:03:08;41.73;;;21.47;;
30723;SDS011;17473;52.286;20.930;2022-11-20T02:08:36;47.93;;;23.47;;
30723;SDS011;17473;52.286;20.930;2022-11-20T02:11:05;48.90;;;22.13;;
30723;SDS011;17473;52.286;20.930;2022-11-20T02:13:32;45.63;;;23.10;;
30723;SDS011;17473;52.286;20.930;2022-11-20T02:16:10;43.23;;;20.97;;
30723;SDS011;17473;52.286;20.930;2022-11-20T02:18:56;45.47;;;22.30;;
30723;SDS011;17473;52.286;20.930;2022-11-20T02:24:15;49.13;;;22.07;;
30723;SDS011;17473;52.286;20.930;2022-11-20T02:29:15;43.50;;;22.47;;
30723;SDS011;17473;52.286;20.930;2022-11-20T02:31:50;54.43;;;25.10;;
30723;SDS011;17473;52.286;20.930;2022-11-20T02:34:20;40.90;;;22.00;;
30723;SDS011;17473;52.286;20.930;2022-11-20T02:36:47;43.47;;;22.23;;
30723;SDS011;17473;52.286;20.930;2022-11-20T02:39:16;45.67;;;22.47;;
30723;SDS011;17473;52.286;20.930;2022-11-20T02:41:44;49.43;;;24.17;;
30723;SDS011;17473;52.286;20.930;2022-11-20T02:44:12;47.70;;;24.00;;
30723;SDS011;17473;52.286;20.930;2022-11-20T02:46:39;47.70;;;22.07;;
30723;SDS011;17473;52.286;20.930;2022-11-20T02:49:06;47.50;;;24.60;;
30723;SDS011;17473;52.286;20.930;2022-11-20T02:51:33;56.07;;;24.83;;
30723;SDS011;17473;52.286;20.930;2022-11-20T02:54:01;47.37;;;22.50;;
30723;SDS011;17473;52.286;20.930;2022-11-20T02:56:28;43.00;;;22.33;;
30723;SDS011;17473;52.286;20.930;2022-11-20T02:58:55;46.67;;;22.60;;
30723;SDS011;17473;52.286;20.930;2022-11-20T03:01:22;46.80;;;22.90;;
30723;SDS011;17473;52.286;20.930;2022-11-20T03:03:49;45.33;;;23.30;;
30723;SDS011;17473;52.286;20.930;2022-11-20T03:06:18;44.33;;;23.60;;
30723;SDS011;17473;52.286;20.930;2022-11-20T03:08:45;50.47;;;23.93;;
30723;SDS011;17473;52.286;20.930;2022-11-20T03:11:12;50.40;;;22.67;;
30723;SDS011;17473;52.286;20.930;2022-11-20T03:13:39;56.17;;;24.77;;
30723;SDS011;17473;52.286;20.930;2022-11-20T03:16:13;45.53;;;23.10;;
30723;SDS011;17473;52.286;20.930;2022-11-20T03:18:46;46.63;;;24.30;;
30723;SDS011;17473;52.286;20.930;2022-11-20T03:21:14;42.17;;;23.20;;
30723;SDS011;17473;52.286;20.930;2022-11-20T03:23:42;47.70;;;22.03;;
30723;SDS011;17473;52.286;20.930;2022-11-20T03:26:14;42.40;;;21.83;;
30723;SDS011;17473;52.286;20.930;2022-11-20T03:28:50;43.43;;;21.83;;
30723;SDS011;17473;52.286;20.930;2022-11-20T03:31:21;42.23;;;22.60;;
30723;SDS011;17473;52.286;20.930;2022-11-20T03:33:51;44.00;;;21.83;;
30723;SDS011;17473;52.286;20.930;2022-11-20T03:36:19;43.50;;;21.63;;
30723;SDS011;17473;52.286;20.930;2022-11-20T03:38:47;42.00;;;22.33;;
30723;SDS011;17473;52.286;20.930;2022-11-20T03:41:17;48.50;;;23.80;;
30723;SDS011;17473;52.286;20.930;2022-11-20T03:43:48;47.07;;;23.73;;
30723;SDS011;17473;52.286;20.930;2022-11-20T03:46:17;45.73;;;23.67;;
30723;SDS011;17473;52.286;20.930;2022-11-20T03:48:44;46.67;;;22.50;;
30723;SDS011;17473;52.286;20.930;2022-11-20T03:51:18;45.27;;;22.03;;
30723;SDS011;17473;52.286;20.930;2022-11-20T03:53:55;47.20;;;22.73;;
30723;SDS011;17473;52.286;20.930;2022-11-20T03:56:26;47.33;;;22.83;;
30723;SDS011;17473;52.286;20.930;2022-11-20T03:58:55;52.40;;;23.43;;
30723;SDS011;17473;52.286;20.930;2022-11-20T04:01:24;46.83;;;24.10;;
30723;SDS011;17473;52.286;20.930;2022-11-20T04:03:54;43.03;;;21.20;;
30723;SDS011;17473;52.286;20.930;2022-11-20T04:06:24;46.43;;;22.03;;
30723;SDS011;17473;52.286;20.930;2022-11-20T04:08:54;41.70;;;21.40;;
30723;SDS011;17473;52.286;20.930;2022-11-20T04:11:27;43.97;;;22.17;;
30723;SDS011;17473;52.286;20.930;2022-11-20T04:14:00;46.50;;;22.47;;
30723;SDS011;17473;52.286;20.930;2022-11-20T04:16:32;39.90;;;20.57;;
30723;SDS011;17473;52.286;20.930;2022-11-20T04:19:02;47.33;;;23.07;;
30723;SDS011;17473;52.286;20.930;2022-11-20T04:21:32;49.40;;;23.30;;
30723;SDS011;17473;52.286;20.930;2022-11-20T04:23:59;48.23;;;23.50;;
30723;SDS011;17473;52.286;20.930;2022-11-20T04:26:27;49.40;;;24.53;;
30723;SDS011;17473;52.286;20.930;2022-11-20T04:28:56;45.73;;;23.37;;
30723;SDS011;17473;52.286;20.930;2022-11-20T04:31:25;51.43;;;23.80;;
30723;SDS011;17473;52.286;20.930;2022-11-20T04:33:55;50.87;;;23.87;;
30723;SDS011;17473;52.286;20.930;2022-11-20T04:36:26;48.80;;;23.73;;
30723;SDS011;17473;52.286;20.930;2022-11-20T04:38:55;53.33;;;24.87;;
30723;SDS011;17473;52.286;20.930;2022-11-20T04:41:25;46.37;;;23.77;;
30723;SDS011;17473;52.286;20.930;2022-11-20T04:43:59;52.73;;;26.03;;
30723;SDS011;17473;52.286;20.930;2022-11-20T04:46:30;48.53;;;24.50;;
30723;SDS011;17473;52.286;20.930;2022-11-20T04:49:03;47.60;;;24.67;;
30723;SDS011;17473;52.286;20.930;2022-11-20T04:51:31;50.47;;;25.90;;
30723;SDS011;17473;52.286;20.930;2022-11-20T04:54:00;52.50;;;26.63;;
30723;SDS011;17473;52.286;20.930;2022-11-20T04:56:27;52.07;;;25.03;;
30723;SDS011;17473;52.286;20.930;2022-11-20T04:58:54;54.93;;;24.90;;
30723;SDS011;17473;52.286;20.930;2022-11-20T05:01:22;49.43;;;24.00;;
30723;SDS011;17473;52.286;20.930;2022-11-20T05:03:50;56.87;;;27.77;;
30723;SDS011;17473;52.286;20.930;2022-11-20T05:06:19;51.37;;;25.43;;
30723;SDS011;17473;52.286;20.930;2022-11-20T05:08:47;45.93;;;23.40;;
30723;SDS011;17473;52.286;20.930;2022-11-20T05:11:18;56.33;;;25.07;;
30723;SDS011;17473;52.286;20.930;2022-11-20T05:13:47;45.67;;;22.87;;
30723;SDS011;17473;52.286;20.930;2022-11-20T05:16:17;48.20;;;24.83;;
30723;SDS011;17473;52.286;20.930;2022-11-20T05:18:54;49.10;;;23.17;;
30723;SDS011;17473;52.286;20.930;2022-11-20T05:21:21;52.63;;;25.17;;
30723;SDS011;17473;52.286;20.930;2022-11-20T05:23:49;50.87;;;25.97;;
30723;SDS011;17473;52.286;20.930;2022-11-20T05:26:17;44.20;;;24.07;;
30723;SDS011;17473;52.286;20.930;2022-11-20T05:28:48;50.90;;;22.93;;
30723;SDS011;17473;52.286;20.930;2022-11-20T05:31:17;53.73;;;27.07;;
30723;SDS011;17473;52.286;20.930;2022-11-20T05:33:53;50.33;;;23.10;;
30723;SDS011;17473;52.286;20.930;2022-11-20T05:36:21;49.60;;;24.93;;
30723;SDS011;17473;52.286;20.930;2022-11-20T05:38:48;50.00;;;23.60;;
30723;SDS011;17473;52.286;20.930;2022-11-20T05:41:17;55.70;;;25.07;;
30723;SDS011;17473;52.286;20.930;2022-11-20T05:43:47;50.03;;;25.30;;
30723;SDS011;17473;52.286;20.930;2022-11-20T05:46:17;46.63;;;24.00;;
30723;SDS011;17473;52.286;20.930;2022-11-20T05:48:54;49.70;;;24.63;;
30723;SDS011;17473;52.286;20.930;2022-11-20T05:51:22;46.00;;;22.87;;
30723;SDS011;17473;52.286;20.930;2022-11-20T05:53:49;51.17;;;23.43;;
30723;SDS011;17473;52.286;20.930;2022-11-20T05:56:17;47.77;;;22.30;;
30723;SDS011;17473;52.286;20.930;2022-11-20T05:58:46;46.47;;;24.63;;
30723;SDS011;17473;52.286;20.930;2022-11-20T06:01:18;43.97;;;24.83;;
30723;SDS011;17473;52.286;20.930;2022-11-20T06:03:49;47.63;;;23.80;;
30723;SDS011;17473;52.286;20.930;2022-11-20T06:06:17;46.80;;;23.73;;
30723;SDS011;17473;52.286;20.930;2022-11-20T06:08:46;42.93;;;22.83;;
30723;SDS011;17473;52.286;20.930;2022-11-20T06:11:14;48.03;;;24.37;;
30723;SDS011;17473;52.286;20.930;2022-11-20T06:13:42;46.73;;;23.37;;
30723;SDS011;17473;52.286;20.930;2022-11-20T06:16:10;46.10;;;23.13;;
30723;SDS011;17473;52.286;20.930;2022-11-20T06:18:39;48.93;;;24.47;;
30723;SDS011;17473;52.286;20.930;2022-11-20T06:23:59;44.70;;;22.20;;
30723;SDS011;17473;52.286;20.930;2022-11-20T06:26:27;43.77;;;21.67;;
30723;SDS011;17473;52.286;20.930;2022-11-20T06:28:54;55.83;;;22.77;;
30723;SDS011;17473;52.286;20.930;2022-11-20T06:31:24;46.60;;;24.23;;
30723;SDS011;17473;52.286;20.930;2022-11-20T06:33:52;48.10;;;23.87;;
30723;SDS011;17473;52.286;20.930;2022-11-20T06:36:21;47.10;;;22.70;;
30723;SDS011;17473;52.286;20.930;2022-11-20T06:38:49;40.50;;;21.13;;
30723;SDS011;17473;52.286;20.930;2022-11-20T06:41:18;46.00;;;23.93;;
30723;SDS011;17473;52.286;20.930;2022-11-20T06:43:47;46.37;;;21.77;;
30723;SDS011;17473;52.286;20.930;2022-11-20T06:46:15;42.80;;;22.70;;
30723;SDS011;17473;52.286;20.930;2022-11-20T06:48:44;43.27;;;22.63;;
30723;SDS011;17473;52.286;20.930;2022-11-20T06:51:12;47.70;;;22.67;;
30723;SDS011;17473;52.286;20.930;2022-11-20T06:53:39;44.27;;;21.10;;
30723;SDS011;17473;52.286;20.930;2022-11-20T06:56:06;46.80;;;22.20;;
30723;SDS011;17473;52.286;20.930;2022-11-20T06:58:34;48.40;;;23.13;;
30723;SDS011;17473;52.286;20.930;2022-11-20T07:01:07;49.70;;;24.73;;
30723;SDS011;17473;52.286;20.930;2022-11-20T07:03:38;42.77;;;21.87;;
30723;SDS011;17473;52.286;20.930;2022-11-20T07:06:05;45.80;;;22.53;;
30723;SDS011;17473;52.286;20.930;2022-11-20T07:08:34;47.43;;;22.87;;
30723;SDS011;17473;52.286;20.930;2022-11-20T07:11:02;48.83;;;22.60;;
30723;SDS011;17473;52.286;20.930;2022-11-20T07:13:32;41.83;;;21.13;;
30723;SDS011;17473;52.286;20.930;2022-11-20T07:16:00;47.33;;;22.97;;
30723;SDS011;17473;52.286;20.930;2022-11-20T07:18:30;48.90;;;22.90;;
30723;SDS011;17473;52.286;20.930;2022-11-20T07:21:03;45.43;;;22.03;;
30723;SDS011;17473;52.286;20.930;2022-11-20T07:23:34;44.57;;;23.03;;
30723;SDS011;17473;52.286;20.930;2022-11-20T07:26:05;38.37;;;20.53;;
30723;SDS011;17473;52.286;20.930;2022-11-20T07:28:37;38.57;;;20.07;;
30723;SDS011;17473;52.286;20.930;2022-11-20T07:31:04;42.90;;;22.17;;
30723;SDS011;17473;52.286;20.930;2022-11-20T07:33:33;44.17;;;23.23;;
30723;SDS011;17473;52.286;20.930;2022-11-20T07:36:00;41.73;;;22.10;;
30723;SDS011;17473;52.286;20.930;2022-11-20T07:38:27;44.93;;;22.23;;
30723;SDS011;17473;52.286;20.930;2022-11-20T07:40:55;43.37;;;21.37;;
30723;SDS011;17473;52.286;20.930;2022-11-20T07:43:24;50.73;;;24.70;;
30723;SDS011;17473;52.286;20.930;2022-11-20T07:45:51;41.67;;;22.87;;
30723;SDS011;17473;52.286;20.930;2022-11-20T07:48:20;45.17;;;24.17;;
30723;SDS011;17473;52.286;20.930;2022-11-20T07:50:48;46.40;;;22.47;;
30723;SDS011;17473;52.286;20.930;2022-11-20T07:53:15;42.07;;;23.00;;
30723;SDS011;17473;52.286;20.930;2022-11-20T07:55:47;48.70;;;24.47;;
30723;SDS011;17473;52.286;20.930;2022-11-20T07:58:14;48.57;;;24.33;;
30723;SDS011;17473;52.286;20.930;2022-11-20T08:00:41;44.00;;;24.10;;
30723;SDS011;17473;52.286;20.930;2022-11-20T08:03:08;50.47;;;25.07;;
30723;SDS011;17473;52.286;20.930;2022-11-20T08:05:36;41.13;;;23.90;;
30723;SDS011;17473;52.286;20.930;2022-11-20T08:08:03;49.60;;;24.93;;
30723;SDS011;17473;52.286;20.930;2022-11-20T08:10:30;42.57;;;23.07;;
30723;SDS011;17473;52.286;20.930;2022-11-20T08:12:58;44.43;;;24.60;;
30723;SDS011;17473;52.286;20.930;2022-11-20T08:15:47;47.67;;;25.63;;
30723;SDS011;17473;52.286;20.930;2022-11-20T08:18:19;45.53;;;24.73;;
30723;SDS011;17473;52.286;20.930;2022-11-20T08:20:57;45.40;;;25.93;;
30723;SDS011;17473;52.286;20.930;2022-11-20T08:23:27;45.33;;;25.60;;
30723;SDS011;17473;52.286;20.930;2022-11-20T08:25:54;50.90;;;26.70;;
30723;SDS011;17473;52.286;20.930;2022-11-20T08:28:21;46.77;;;26.63;;
30723;SDS011;17473;52.286;20.930;2022-11-20T08:30:49;48.03;;;26.10;;
30723;SDS011;17473;52.286;20.930;2022-11-20T08:33:17;51.60;;;27.90;;
30723;SDS011;17473;52.286;20.930;2022-11-20T08:35:45;51.33;;;28.00;;
30723;SDS011;17473;52.286;20.930;2022-11-20T08:38:12;44.17;;;26.73;;
30723;SDS011;17473;52.286;20.930;2022-11-20T08:40:39;48.43;;;27.13;;
30723;SDS011;17473;52.286;20.930;2022-11-20T08:43:06;48.30;;;28.20;;
30723;SDS011;17473;52.286;20.930;2022-11-20T08:45:33;54.00;;;28.67;;
30723;SDS011;17473;52.286;20.930;2022-11-20T08:48:01;47.93;;;28.13;;
30723;SDS011;17473;52.286;20.930;2022-11-20T08:50:29;45.27;;;25.87;;
30723;SDS011;17473;52.286;20.930;2022-11-20T08:53:04;45.93;;;27.23;;
30723;SDS011;17473;52.286;20.930;2022-11-20T08:55:31;51.03;;;28.23;;
30723;SDS011;17473;52.286;20.930;2022-11-20T08:58:04;50.73;;;27.77;;
30723;SDS011;17473;52.286;20.930;2022-11-20T09:00:33;55.93;;;27.97;;
30723;SDS011;17473;52.286;20.930;2022-11-20T09:03:00;46.77;;;26.47;;
30723;SDS011;17473;52.286;20.930;2022-11-20T09:05:28;49.23;;;26.90;;
30723;SDS011;17473;52.286;20.930;2022-11-20T09:07:58;41.77;;;25.53;;
30723;SDS011;17473;52.286;20.930;2022-11-20T09:10:26;51.63;;;27.20;;
30723;SDS011;17473;52.286;20.930;2022-11-20T09:12:53;51.73;;;27.50;;
30723;SDS011;17473;52.286;20.930;2022-11-20T09:15:23;48.83;;;28.10;;
30723;SDS011;17473;52.286;20.930;2022-11-20T09:20:23;50.40;;;28.80;;
30723;SDS011;17473;52.286;20.930;2022-11-20T09:22:51;50.53;;;27.00;;
30723;SDS011;17473;52.286;20.930;2022-11-20T09:25:18;50.33;;;29.27;;
30723;SDS011;17473;52.286;20.930;2022-11-20T09:27:45;44.60;;;26.17;;
30723;SDS011;17473;52.286;20.930;2022-11-20T09:30:13;55.33;;;26.67;;
30723;SDS011;17473;52.286;20.930;2022-11-20T09:32:41;45.27;;;24.80;;
30723;SDS011;17473;52.286;20.930;2022-11-20T09:35:09;47.03;;;26.43;;
30723;SDS011;17473;52.286;20.930;2022-11-20T09:37:37;46.87;;;26.77;;
30723;SDS011;17473;52.286;20.930;2022-11-20T09:40:04;42.87;;;26.10;;
30723;SDS011;17473;52.286;20.930;2022-11-20T09:42:34;43.80;;;27.33;;
30723;SDS011;17473;52.286;20.930;2022-11-20T09:45:23;51.10;;;27.50;;
30723;SDS011;17473;52.286;20.930;2022-11-20T09:51:00;49.63;;;28.53;;
30723;SDS011;17473;52.286;20.930;2022-11-20T09:56:53;56.40;;;32.43;;
30723;SDS011;17473;52.286;20.930;2022-11-20T10:05:04;53.93;;;27.40;;
30723;SDS011;17473;52.286;20.930;2022-11-20T10:08:15;46.57;;;27.30;;
30723;SDS011;17473;52.286;20.930;2022-11-20T10:11:23;50.47;;;28.90;;
30723;SDS011;17473;52.286;20.930;2022-11-20T10:14:00;51.93;;;29.07;;
30723;SDS011;17473;52.286;20.930;2022-11-20T10:23:03;59.83;;;30.20;;
30723;SDS011;17473;52.286;20.930;2022-11-20T10:28:46;54.73;;;29.20;;
30723;SDS011;17473;52.286;20.930;2022-11-20T10:31:38;47.13;;;28.57;;
30723;SDS011;17473;52.286;20.930;2022-11-20T10:34:28;46.83;;;27.63;;
30723;SDS011;17473;52.286;20.930;2022-11-20T10:37:19;46.80;;;26.77;;
30723;SDS011;17473;52.286;20.930;2022-11-20T10:42:42;54.60;;;29.13;;
30723;SDS011;17473;52.286;20.930;2022-11-20T10:47:56;50.50;;;27.47;;
30723;SDS011;17473;52.286;20.930;2022-11-20T10:50:54;49.87;;;27.70;;
30723;SDS011;17473;52.286;20.930;2022-11-20T10:56:48;45.87;;;25.23;;
30723;SDS011;17473;52.286;20.930;2022-11-20T11:02:20;43.87;;;25.87;;
30723;SDS011;17473;52.286;20.930;2022-11-20T11:04:50;42.63;;;25.67;;
30723;SDS011;17473;52.286;20.930;2022-11-20T11:07:35;46.13;;;26.37;;
30723;SDS011;17473;52.286;20.930;2022-11-20T11:10:14;43.97;;;25.83;;
30723;SDS011;17473;52.286;20.930;2022-11-20T11:13:27;44.53;;;25.90;;
30723;SDS011;17473;52.286;20.930;2022-11-20T11:15:56;42.60;;;24.20;;
30723;SDS011;17473;52.286;20.930;2022-11-20T11:18:25;42.77;;;25.07;;
30723;SDS011;17473;52.286;20.930;2022-11-20T11:20:59;41.37;;;25.97;;
30723;SDS011;17473;52.286;20.930;2022-11-20T11:26:07;43.77;;;24.90;;
30723;SDS011;17473;52.286;20.930;2022-11-20T11:29:16;42.83;;;24.13;;
30723;SDS011;17473;52.286;20.930;2022-11-20T11:31:44;40.87;;;24.13;;
30723;SDS011;17473;52.286;20.930;2022-11-20T11:34:11;41.77;;;24.80;;
30723;SDS011;17473;52.286;20.930;2022-11-20T11:36:40;43.93;;;25.77;;
30723;SDS011;17473;52.286;20.930;2022-11-20T11:39:11;39.57;;;24.20;;
30723;SDS011;17473;52.286;20.930;2022-11-20T11:41:42;46.40;;;25.37;;
30723;SDS011;17473;52.286;20.930;2022-11-20T11:44:19;47.20;;;26.63;;
30723;SDS011;17473;52.286;20.930;2022-11-20T11:47:11;42.57;;;24.23;;
30723;SDS011;17473;52.286;20.930;2022-11-20T11:49:44;41.43;;;24.87;;
30723;SDS011;17473;52.286;20.930;2022-11-20T11:52:18;42.00;;;23.47;;
30723;SDS011;17473;52.286;20.930;2022-11-20T12:00:16;42.23;;;23.53;;
30723;SDS011;17473;52.286;20.930;2022-11-20T12:02:49;38.40;;;22.57;;
30723;SDS011;17473;52.286;20.930;2022-11-20T12:05:36;41.77;;;23.40;;
30723;SDS011;17473;52.286;20.930;2022-11-20T12:10:52;39.67;;;23.03;;
30723;SDS011;17473;52.286;20.930;2022-11-20T12:13:44;40.07;;;21.80;;
30723;SDS011;17473;52.286;20.930;2022-11-20T12:16:36;36.53;;;21.90;;
30723;SDS011;17473;52.286;20.930;2022-11-20T12:19:11;40.90;;;23.10;;
30723;SDS011;17473;52.286;20.930;2022-11-20T12:22:02;41.47;;;23.87;;
30723;SDS011;17473;52.286;20.930;2022-11-20T12:24:54;43.13;;;21.23;;
30723;SDS011;17473;52.286;20.930;2022-11-20T12:30:25;40.43;;;23.03;;
30723;SDS011;17473;52.286;20.930;2022-11-20T12:36:04;39.67;;;21.00;;
30723;SDS011;17473;52.286;20.930;2022-11-20T12:41:36;44.20;;;22.77;;
30723;SDS011;17473;52.286;20.930;2022-11-20T12:56:58;36.87;;;21.10;;
30723;SDS011;17473;52.286;20.930;2022-11-20T13:08:27;41.03;;;21.80;;
30723;SDS011;17473;52.286;20.930;2022-11-20T13:11:15;38.23;;;20.90;;
30723;SDS011;17473;52.286;20.930;2022-11-20T13:17:11;37.83;;;21.23;;
30723;SDS011;17473;52.286;20.930;2022-11-20T13:20:04;38.73;;;19.57;;
30723;SDS011;17473;52.286;20.930;2022-11-20T13:22:48;34.00;;;19.47;;
30723;SDS011;17473;52.286;20.930;2022-11-20T13:25:27;42.77;;;20.83;;
30723;SDS011;17473;52.286;20.930;2022-11-20T13:27:56;36.80;;;19.97;;
30723;SDS011;17473;52.286;20.930;2022-11-20T13:30:27;39.37;;;21.30;;
30723;SDS011;17473;52.286;20.930;2022-11-20T13:32:56;37.37;;;20.13;;
30723;SDS011;17473;52.286;20.930;2022-11-20T13:35:40;38.63;;;21.63;;
30723;SDS011;17473;52.286;20.930;2022-11-20T13:38:09;35.57;;;19.27;;
30723;SDS011;17473;52.286;20.930;2022-11-20T13:40:53;40.33;;;20.67;;
30723;SDS011;17473;52.286;20.930;2022-11-20T13:46:07;37.17;;;20.40;;
30723;SDS011;17473;52.286;20.930;2022-11-20T13:48:42;37.93;;;21.53;;
30723;SDS011;17473;52.286;20.930;2022-11-20T13:51:21;37.87;;;21.03;;
30723;SDS011;17473;52.286;20.930;2022-11-20T13:57:19;40.60;;;19.93;;
30723;SDS011;17473;52.286;20.930;2022-11-20T14:00:21;42.30;;;21.30;;
30723;SDS011;17473;52.286;20.930;2022-11-20T14:05:35;39.27;;;21.47;;
30723;SDS011;17473;52.286;20.930;2022-11-20T14:08:06;39.43;;;22.03;;
30723;SDS011;17473;52.286;20.930;2022-11-20T14:10:40;44.00;;;22.83;;
30723;SDS011;17473;52.286;20.930;2022-11-20T14:13:10;42.63;;;24.53;;
30723;SDS011;17473;52.286;20.930;2022-11-20T14:15:44;45.37;;;23.77;;
30723;SDS011;17473;52.286;20.930;2022-11-20T14:18:20;45.80;;;23.97;;
30723;SDS011;17473;52.286;20.930;2022-11-20T14:20:50;46.90;;;24.27;;
30723;SDS011;17473;52.286;20.930;2022-11-20T14:23:25;49.00;;;25.27;;
30723;SDS011;17473;52.286;20.930;2022-11-20T14:25:55;49.20;;;24.40;;
30723;SDS011;17473;52.286;20.930;2022-11-20T14:28:26;51.53;;;26.83;;
30723;SDS011;17473;52.286;20.930;2022-11-20T14:30:56;48.37;;;24.07;;
30723;SDS011;17473;52.286;20.930;2022-11-20T14:33:25;49.53;;;25.57;;
30723;SDS011;17473;52.286;20.930;2022-11-20T14:35:56;43.60;;;24.13;;
30723;SDS011;17473;52.286;20.930;2022-11-20T14:38:25;49.67;;;24.97;;
30723;SDS011;17473;52.286;20.930;2022-11-20T14:41:05;46.10;;;24.33;;
30723;SDS011;17473;52.286;20.930;2022-11-20T14:43:45;46.27;;;24.70;;
30723;SDS011;17473;52.286;20.930;2022-11-20T14:46:17;47.80;;;25.57;;
30723;SDS011;17473;52.286;20.930;2022-11-20T14:49:02;45.50;;;25.43;;
30723;SDS011;17473;52.286;20.930;2022-11-20T14:56:41;56.23;;;26.33;;
30723;SDS011;17473;52.286;20.930;2022-11-20T14:59:23;46.57;;;25.33;;
30723;SDS011;17473;52.286;20.930;2022-11-20T15:02:09;49.50;;;24.87;;
30723;SDS011;17473;52.286;20.930;2022-11-20T15:04:48;48.53;;;27.43;;
30723;SDS011;17473;52.286;20.930;2022-11-20T15:07:27;49.33;;;26.40;;
30723;SDS011;17473;52.286;20.930;2022-11-20T15:10:04;51.43;;;25.23;;
30723;SDS011;17473;52.286;20.930;2022-11-20T15:12:46;43.47;;;23.83;;
30723;SDS011;17473;52.286;20.930;2022-11-20T15:15:24;45.10;;;24.93;;
30723;SDS011;17473;52.286;20.930;2022-11-20T15:18:01;49.60;;;26.27;;
30723;SDS011;17473;52.286;20.930;2022-11-20T15:20:30;47.27;;;25.50;;
30723;SDS011;17473;52.286;20.930;2022-11-20T15:22:59;48.60;;;25.80;;
30723;SDS011;17473;52.286;20.930;2022-11-20T15:25:26;47.77;;;24.97;;
30723;SDS011;17473;52.286;20.930;2022-11-20T15:27:55;45.20;;;23.80;;
30723;SDS011;17473;52.286;20.930;2022-11-20T15:30:23;42.17;;;23.30;;
30723;SDS011;17473;52.286;20.930;2022-11-20T15:32:50;48.17;;;24.73;;
30723;SDS011;17473;52.286;20.930;2022-11-20T15:35:17;48.20;;;24.90;;
30723;SDS011;17473;52.286;20.930;2022-11-20T15:37:44;45.63;;;24.33;;
30723;SDS011;17473;52.286;20.930;2022-11-20T15:40:11;42.83;;;22.73;;
30723;SDS011;17473;52.286;20.930;2022-11-20T15:42:39;41.73;;;23.00;;
30723;SDS011;17473;52.286;20.930;2022-11-20T15:45:26;46.50;;;23.60;;
30723;SDS011;17473;52.286;20.930;2022-11-20T15:48:12;46.43;;;24.77;;
30723;SDS011;17473;52.286;20.930;2022-11-20T15:53:37;53.17;;;28.07;;
30723;SDS011;17473;52.286;20.930;2022-11-20T15:56:09;49.90;;;26.23;;
30723;SDS011;17473;52.286;20.930;2022-11-20T15:58:39;52.77;;;26.17;;
30723;SDS011;17473;52.286;20.930;2022-11-20T16:01:17;54.10;;;26.30;;
30723;SDS011;17473;52.286;20.930;2022-11-20T16:03:47;49.30;;;26.13;;
30723;SDS011;17473;52.286;20.930;2022-11-20T16:06:14;43.97;;;24.70;;
30723;SDS011;17473;52.286;20.930;2022-11-20T16:08:42;44.07;;;23.37;;
30723;SDS011;17473;52.286;20.930;2022-11-20T16:11:10;47.93;;;25.20;;
30723;SDS011;17473;52.286;20.930;2022-11-20T16:13:41;49.73;;;24.67;;
30723;SDS011;17473;52.286;20.930;2022-11-20T16:16:27;48.80;;;24.10;;
30723;SDS011;17473;52.286;20.930;2022-11-20T16:19:01;46.27;;;23.13;;
30723;SDS011;17473;52.286;20.930;2022-11-20T16:21:28;46.83;;;25.70;;
30723;SDS011;17473;52.286;20.930;2022-11-20T16:23:59;46.43;;;24.07;;
30723;SDS011;17473;52.286;20.930;2022-11-20T16:26:28;52.33;;;24.57;;
30723;SDS011;17473;52.286;20.930;2022-11-20T16:28:55;41.57;;;22.43;;